createdAt,value
2023-03-10T00:01:30.124Z,0.93
2023-03-10T00:03:59.013Z,0.80
2023-03-10T00:06:30.719Z,0.90
2023-03-10T00:09:24.527Z,0.85
2023-03-10T00:11:52.311Z,1.02
2023-03-10T00:14:23.673Z,0.95
2023-03-10T00:16:50.894Z,0.80
2023-03-10T00:19:18.688Z,2.30
2023-03-10T00:21:48.979Z,1.73
2023-03-10T00:24:16.133Z,1.33
2023-03-10T00:26:53.391Z,0.88
2023-03-10T00:29:22.217Z,0.98
2023-03-10T00:31:49.784Z,0.70
2023-03-10T00:34:17.011Z,1.08
2023-03-10T00:36:44.671Z,1.13
2023-03-10T00:39:12.062Z,0.90
2023-03-10T00:41:39.538Z,1.02
2023-03-10T00:44:10.397Z,1.33
2023-03-10T00:46:39.199Z,1.10
2023-03-10T00:49:07.917Z,1.27
2023-03-10T00:51:36.113Z,1.23
2023-03-10T00:54:03.851Z,1.13
2023-03-10T00:56:31.316Z,1.10
2023-03-10T00:59:23.962Z,1.27
2023-03-10T01:01:51.349Z,1.15
2023-03-10T01:04:20.147Z,1.50
2023-03-10T01:06:48.094Z,0.95
2023-03-10T01:09:16.387Z,1.05
2023-03-10T01:11:46.763Z,1.20
2023-03-10T01:14:15.707Z,0.90
2023-03-10T01:16:43.270Z,1.00
2023-03-10T01:19:11.033Z,1.15
2023-03-10T01:21:40.020Z,1.20
2023-03-10T01:24:15.222Z,0.95
2023-03-10T01:26:43.360Z,1.05
2023-03-10T01:29:13.065Z,1.20
2023-03-10T01:31:42.273Z,0.98
2023-03-10T01:34:09.597Z,0.63
2023-03-10T01:36:36.865Z,0.80
2023-03-10T01:39:04.432Z,0.82
2023-03-10T01:41:31.634Z,0.85
2023-03-10T01:43:59.636Z,0.90
2023-03-10T01:46:45.778Z,0.82
2023-03-10T01:49:32.740Z,1.08
2023-03-10T01:52:03.959Z,0.90
2023-03-10T01:54:43.226Z,0.65
2023-03-10T01:57:12.081Z,0.85
2023-03-10T01:59:40.859Z,0.90
2023-03-10T02:02:08.933Z,0.90
2023-03-10T02:04:43.983Z,1.00
2023-03-10T02:07:13.402Z,0.80
2023-03-10T02:09:44.816Z,0.93
2023-03-10T02:12:13.830Z,0.43
2023-03-10T02:14:41.984Z,0.95
2023-03-10T02:17:14.058Z,0.90
2023-03-10T02:19:59.759Z,0.68
2023-03-10T02:22:27.336Z,0.80
2023-03-10T02:25:19.299Z,1.00
2023-03-10T02:27:48.176Z,0.90
2023-03-10T02:30:27.392Z,0.80
2023-03-10T02:32:59.288Z,0.88
2023-03-10T02:35:28.207Z,0.98
2023-03-10T02:38:00.391Z,1.00
2023-03-10T02:40:34.827Z,1.55
2023-03-10T02:43:17.153Z,1.05
2023-03-10T02:45:48.802Z,1.40
2023-03-10T02:48:28.085Z,1.23
2023-03-10T02:50:57.117Z,0.93
2023-03-10T02:53:29.576Z,1.23
2023-03-10T02:55:58.662Z,1.20
2023-03-10T02:58:29.492Z,1.20
2023-03-10T03:00:57.972Z,1.65
2023-03-10T03:03:28.773Z,1.40
2023-03-10T03:05:56.207Z,1.17
2023-03-10T03:08:24.288Z,1.20
2023-03-10T03:10:53.231Z,0.90
2023-03-10T03:13:22.467Z,0.95
2023-03-10T03:15:51.218Z,1.35
2023-03-10T03:18:19.000Z,1.33
2023-03-10T03:20:46.312Z,1.20
2023-03-10T03:23:14.033Z,1.70
2023-03-10T03:25:46.530Z,0.93
2023-03-10T03:28:18.684Z,1.17
2023-03-10T03:30:50.277Z,1.30
2023-03-10T03:33:18.367Z,1.58
2023-03-10T03:35:46.632Z,1.33
2023-03-10T03:38:16.560Z,1.52
2023-03-10T03:40:45.470Z,1.30
2023-03-10T03:43:15.130Z,1.70
2023-03-10T03:45:43.704Z,1.13
2023-03-10T03:48:14.346Z,1.08
2023-03-10T03:50:42.499Z,1.33
2023-03-10T03:53:19.788Z,1.27
2023-03-10T03:55:47.036Z,1.45
2023-03-10T03:58:19.537Z,1.38
2023-03-10T04:00:48.772Z,1.40
2023-03-10T04:03:17.764Z,1.50
2023-03-10T04:05:46.166Z,2.00
2023-03-10T04:08:14.571Z,1.20
2023-03-10T04:10:41.975Z,1.48
2023-03-10T04:13:09.419Z,1.50
2023-03-10T04:15:37.001Z,1.77
2023-03-10T04:18:04.316Z,1.70
2023-03-10T04:20:31.756Z,1.50
2023-03-10T04:22:59.409Z,1.70
2023-03-10T04:25:31.174Z,2.00
2023-03-10T04:27:58.618Z,1.65
2023-03-10T04:30:29.785Z,1.52
2023-03-10T04:33:00.962Z,1.40
2023-03-10T04:35:30.608Z,1.45
2023-03-10T04:37:59.652Z,1.40
2023-03-10T04:40:27.699Z,1.65
2023-03-10T04:42:55.235Z,1.73
2023-03-10T04:45:23.003Z,1.42
2023-03-10T04:47:51.936Z,1.52
2023-03-10T04:50:19.197Z,1.40
2023-03-10T04:52:50.286Z,1.60
2023-03-10T04:55:20.354Z,1.60
2023-03-10T04:57:48.530Z,1.63
2023-03-10T05:00:16.776Z,2.08
2023-03-10T05:02:44.170Z,1.70
2023-03-10T05:05:15.083Z,1.60
2023-03-10T05:07:45.313Z,1.80
2023-03-10T05:10:15.168Z,1.48
2023-03-10T05:12:42.642Z,1.58
2023-03-10T05:15:14.561Z,1.55
2023-03-10T05:17:42.126Z,2.05
2023-03-10T05:20:10.752Z,1.67
2023-03-10T05:22:38.832Z,1.60
2023-03-10T05:25:10.250Z,1.20
2023-03-10T05:27:39.147Z,1.73
2023-03-10T05:30:08.848Z,1.70
2023-03-10T05:32:38.150Z,1.50
2023-03-10T05:35:08.437Z,1.70
2023-03-10T05:37:40.251Z,1.70
2023-03-10T05:40:12.806Z,2.03
2023-03-10T05:42:40.319Z,2.78
2023-03-10T05:45:08.413Z,1.77
2023-03-10T05:47:37.607Z,1.70
2023-03-10T05:50:06.320Z,2.22
2023-03-10T05:52:41.767Z,1.98
2023-03-10T05:55:13.872Z,1.83
2023-03-10T05:57:41.780Z,1.58
2023-03-10T06:00:10.963Z,1.40
2023-03-10T06:02:43.654Z,2.17
2023-03-10T06:05:14.575Z,1.60
2023-03-10T06:07:42.552Z,1.98
2023-03-10T06:10:12.689Z,1.98
2023-03-10T06:12:40.041Z,2.00
2023-03-10T06:15:07.901Z,2.00
2023-03-10T06:17:35.136Z,1.42
2023-03-10T06:20:02.635Z,1.67
2023-03-10T06:22:31.369Z,2.88
2023-03-10T06:24:58.747Z,1.98
2023-03-10T06:27:25.912Z,1.88
2023-03-10T06:30:00.976Z,2.00
2023-03-10T06:32:28.476Z,1.90
2023-03-10T06:35:02.858Z,1.63
2023-03-10T06:37:30.182Z,1.80
2023-03-10T06:39:57.306Z,1.38
2023-03-10T06:42:24.554Z,2.10
2023-03-10T06:44:54.959Z,2.17
2023-03-10T06:47:22.302Z,2.03
2023-03-10T06:49:57.836Z,1.88
2023-03-10T06:52:26.027Z,1.55
2023-03-10T06:54:55.453Z,2.72
2023-03-10T06:57:22.759Z,1.98
2023-03-10T06:59:55.831Z,2.47
2023-03-10T07:02:42.437Z,1.95
2023-03-10T07:05:13.861Z,2.25
2023-03-10T07:07:42.749Z,1.63
2023-03-10T07:10:13.689Z,2.50
2023-03-10T07:12:59.801Z,1.80
2023-03-10T07:15:35.515Z,2.00
2023-03-10T07:18:08.381Z,1.70
2023-03-10T07:20:41.088Z,2.15
2023-03-10T07:23:23.120Z,1.85
2023-03-10T07:26:00.191Z,1.95
2023-03-10T07:28:37.798Z,1.90
2023-03-10T07:31:15.749Z,2.17
2023-03-10T07:33:52.597Z,2.58
2023-03-10T07:36:33.453Z,1.95
2023-03-10T07:39:11.171Z,2.17
2023-03-10T07:41:46.744Z,1.88
2023-03-10T07:44:22.207Z,2.72
2023-03-10T07:47:03.636Z,2.15
2023-03-10T07:49:47.142Z,3.05
2023-03-10T07:52:22.193Z,1.73
2023-03-10T07:55:27.381Z,1.90
2023-03-10T07:58:01.144Z,2.28
2023-03-10T08:00:40.857Z,2.45
2023-03-10T08:03:16.496Z,2.05
2023-03-10T08:06:10.527Z,2.20
2023-03-10T08:11:25.386Z,2.80
2023-03-10T08:14:04.948Z,1.88
2023-03-10T08:16:58.920Z,2.60
2023-03-10T08:19:31.284Z,2.28
2023-03-10T08:22:15.065Z,2.10
2023-03-10T08:27:44.260Z,1.73
2023-03-10T08:30:20.488Z,2.25
2023-03-10T08:32:53.274Z,2.75
2023-03-10T08:35:23.286Z,2.65
2023-03-10T08:40:44.004Z,2.50
2023-03-10T08:43:11.740Z,2.25
2023-03-10T08:48:30.144Z,2.15
2023-03-10T08:50:58.090Z,2.65
2023-03-10T08:53:25.556Z,2.35
2023-03-10T08:55:52.924Z,2.30
2023-03-10T08:58:20.647Z,3.33
2023-03-10T09:00:49.234Z,2.33
2023-03-10T09:03:17.041Z,2.33
2023-03-10T09:05:44.486Z,2.00
2023-03-10T09:08:12.214Z,2.72
2023-03-10T09:10:41.111Z,2.22
2023-03-10T09:13:14.292Z,3.40
2023-03-10T09:15:46.018Z,2.63
2023-03-10T09:18:15.600Z,2.70
2023-03-10T09:20:56.783Z,2.05
2023-03-10T09:23:24.150Z,2.55
2023-03-10T09:25:51.718Z,2.67
2023-03-10T09:28:22.106Z,2.65
2023-03-10T09:30:53.799Z,2.08
2023-03-10T09:33:27.408Z,1.95
2023-03-10T09:36:06.577Z,2.35
2023-03-10T09:38:35.541Z,2.33
2023-03-10T09:41:38.287Z,2.70
2023-03-10T09:44:43.624Z,2.17
2023-03-10T09:47:25.447Z,3.67
2023-03-10T09:50:42.272Z,2.47
2023-03-10T09:53:35.621Z,2.60
2023-03-10T09:56:16.084Z,2.38
2023-03-10T09:58:50.032Z,2.53
2023-03-10T10:01:23.305Z,2.20
2023-03-10T10:03:58.381Z,2.63
2023-03-10T10:06:30.470Z,1.85
2023-03-10T10:11:46.546Z,1.80
2023-03-10T10:14:31.077Z,2.50
2023-03-10T10:17:35.444Z,1.95
2023-03-10T10:20:46.215Z,1.92
2023-03-10T10:26:59.912Z,2.33
2023-03-10T10:30:42.433Z,2.13
2023-03-10T10:36:55.623Z,2.65
2023-03-10T10:39:44.713Z,2.30
2023-03-10T10:42:34.360Z,2.10
2023-03-10T10:45:09.117Z,3.15
2023-03-10T10:47:50.663Z,2.03
2023-03-10T10:50:36.503Z,1.90
2023-03-10T10:53:39.941Z,2.38
2023-03-10T10:56:20.036Z,2.30
2023-03-10T10:59:30.282Z,2.10
2023-03-10T11:02:35.755Z,2.58
2023-03-10T11:05:23.389Z,2.65
2023-03-10T11:07:54.170Z,2.20
2023-03-10T11:10:31.278Z,2.78
2023-03-10T11:13:22.815Z,2.15
2023-03-10T11:16:07.317Z,1.92
2023-03-10T11:21:53.586Z,1.60
2023-03-10T11:24:49.451Z,2.65
2023-03-10T11:27:34.686Z,2.78
2023-03-10T11:30:18.518Z,2.03
2023-03-10T11:33:04.098Z,2.75
2023-03-10T11:35:36.765Z,2.22
2023-03-10T11:38:37.434Z,2.80
2023-03-10T11:41:43.051Z,2.33
2023-03-10T11:44:31.031Z,2.00
2023-03-10T11:47:20.311Z,2.22
2023-03-10T11:50:02.131Z,2.58
2023-03-10T11:52:32.982Z,2.40
2023-03-10T11:58:06.032Z,2.40
2023-03-10T12:00:44.523Z,2.78
2023-03-10T12:03:50.122Z,2.47
2023-03-10T12:06:35.444Z,3.97
2023-03-10T12:12:45.914Z,3.97
2023-03-10T12:15:24.386Z,2.72
2023-03-10T12:18:01.521Z,2.65
2023-03-10T12:20:30.927Z,2.20
2023-03-10T12:23:30.684Z,2.83
2023-03-10T12:26:00.896Z,2.75
2023-03-10T12:28:34.403Z,2.85
2023-03-10T12:33:37.646Z,3.15
2023-03-10T12:39:38.980Z,2.40
2023-03-10T12:42:33.323Z,2.50
2023-03-10T12:45:23.865Z,3.28
2023-03-10T12:48:10.625Z,2.43
2023-03-10T12:50:57.991Z,2.80
2023-03-10T12:53:45.663Z,2.75
2023-03-10T12:56:27.997Z,2.92
2023-03-10T12:59:08.577Z,3.13
2023-03-10T13:01:56.405Z,3.00
2023-03-10T13:04:35.449Z,2.50
2023-03-10T13:07:07.129Z,2.20
2023-03-10T13:09:39.311Z,2.40
2023-03-10T13:12:24.701Z,2.05
2023-03-10T13:14:56.942Z,2.33
2023-03-10T13:17:36.942Z,2.63
2023-03-10T13:20:15.231Z,2.53
2023-03-10T13:22:56.875Z,2.65
2023-03-10T13:25:25.041Z,3.03
2023-03-10T13:28:00.224Z,2.53
2023-03-10T13:30:28.190Z,2.63
2023-03-10T13:33:03.784Z,2.25
2023-03-10T13:35:39.912Z,2.40
2023-03-10T13:41:08.409Z,2.55
2023-03-10T13:43:48.877Z,2.30
2023-03-10T13:46:27.858Z,2.67
2023-03-10T13:49:23.732Z,2.70
2023-03-10T13:51:58.193Z,3.63
2023-03-10T13:54:42.510Z,2.60
2023-03-10T13:57:18.672Z,2.50
2023-03-10T13:59:50.915Z,2.90
2023-03-10T14:02:30.616Z,2.70
2023-03-10T14:04:59.060Z,2.95
2023-03-10T14:07:33.467Z,2.83
2023-03-10T14:10:08.093Z,2.55
2023-03-10T14:12:43.632Z,2.92
2023-03-10T14:15:19.838Z,2.13
2023-03-10T14:18:09.281Z,2.72
2023-03-10T14:20:42.304Z,2.60
2023-03-10T14:25:57.243Z,2.35
2023-03-10T14:28:35.747Z,2.20
2023-03-10T14:31:07.091Z,2.72
2023-03-10T14:33:37.021Z,1.75
2023-03-10T14:36:06.212Z,1.95
2023-03-10T14:38:33.762Z,1.98
2023-03-10T14:41:01.025Z,2.90
2023-03-10T14:43:42.199Z,2.17
2023-03-10T14:46:13.579Z,1.48
2023-03-10T14:48:48.548Z,1.90
2023-03-10T14:51:32.450Z,1.90
2023-03-10T14:54:05.801Z,2.17
2023-03-10T14:56:36.783Z,2.30
2023-03-10T14:59:06.791Z,2.67
2023-03-10T15:01:34.342Z,2.05
2023-03-10T15:04:01.566Z,1.80
2023-03-10T15:06:28.778Z,1.33
2023-03-10T15:08:55.869Z,1.85
2023-03-10T15:11:35.970Z,1.75
2023-03-10T15:14:12.557Z,2.00
2023-03-10T15:16:42.637Z,1.23
2023-03-10T15:19:24.883Z,1.70
2023-03-10T15:21:54.633Z,1.50
2023-03-10T15:24:21.931Z,1.25
2023-03-10T15:27:08.752Z,1.38
2023-03-10T15:29:35.949Z,1.55
2023-03-10T15:32:12.382Z,2.25
2023-03-10T15:34:50.046Z,1.90
2023-03-10T15:37:28.986Z,2.60
2023-03-10T15:40:00.543Z,1.50
2023-03-10T15:42:30.027Z,1.63
2023-03-10T15:45:12.287Z,1.85
2023-03-10T15:47:39.689Z,1.50
2023-03-10T15:50:13.347Z,1.13
2023-03-10T15:52:57.381Z,1.23
2023-03-10T15:55:26.117Z,1.42
2023-03-10T15:57:56.354Z,2.28
2023-03-10T16:00:26.947Z,1.38
2023-03-10T16:02:57.269Z,1.17
2023-03-10T16:05:27.844Z,1.30
2023-03-10T16:07:57.762Z,1.08
2023-03-10T16:10:25.822Z,2.35
2023-03-10T16:12:53.269Z,1.92
2023-03-10T16:15:23.250Z,2.20
2023-03-10T16:17:50.804Z,1.50
2023-03-10T16:20:19.376Z,1.63
2023-03-10T16:22:46.560Z,1.58
2023-03-10T16:25:16.502Z,1.55
2023-03-10T16:27:45.271Z,1.92
2023-03-10T16:30:14.236Z,1.10
2023-03-10T16:32:47.689Z,2.00
2023-03-10T16:35:15.645Z,1.17
2023-03-10T16:37:43.489Z,1.92
2023-03-10T16:40:12.333Z,1.42
2023-03-10T16:42:46.553Z,1.60
2023-03-10T16:45:13.885Z,1.20
2023-03-10T16:47:41.327Z,1.35
2023-03-10T16:50:12.832Z,1.20
2023-03-10T16:52:42.651Z,1.55
2023-03-10T16:55:18.473Z,1.15
2023-03-10T16:57:46.073Z,2.00
2023-03-10T17:00:14.482Z,2.42
2023-03-10T17:02:49.455Z,1.77
2023-03-10T17:05:19.695Z,2.22
2023-03-10T17:07:55.583Z,3.00
2023-03-10T17:10:23.312Z,2.63
2023-03-10T17:12:50.429Z,1.20
2023-03-10T17:15:20.163Z,1.70
2023-03-10T17:17:53.460Z,1.50
2023-03-10T17:20:35.326Z,1.67
2023-03-10T17:23:09.373Z,1.98
2023-03-10T17:25:56.877Z,1.73
2023-03-10T17:28:47.239Z,2.88
2023-03-10T17:31:29.645Z,2.58
2023-03-10T17:34:11.316Z,2.28
2023-03-10T17:36:41.904Z,2.33
2023-03-10T17:39:23.703Z,2.60
2023-03-10T17:41:56.258Z,2.78
2023-03-10T17:44:25.357Z,2.28
2023-03-10T17:47:03.765Z,2.20
2023-03-10T17:49:35.849Z,2.50
2023-03-10T17:52:03.006Z,2.30
2023-03-10T17:54:33.445Z,3.40
2023-03-10T17:57:05.875Z,2.97
2023-03-10T17:59:43.443Z,2.35
2023-03-10T18:02:21.600Z,2.38
2023-03-10T18:04:48.942Z,2.45
2023-03-10T18:07:16.369Z,2.75
2023-03-10T18:09:54.808Z,2.15
2023-03-10T18:12:35.701Z,3.00
2023-03-10T18:15:33.503Z,2.20
2023-03-10T18:18:14.622Z,2.53
2023-03-10T18:20:44.302Z,2.95
2023-03-10T18:23:14.066Z,2.75
2023-03-10T18:25:44.246Z,2.80
2023-03-10T18:28:17.106Z,2.45
2023-03-10T18:30:56.749Z,2.60
2023-03-10T18:33:29.626Z,1.95
2023-03-10T18:36:04.864Z,3.10
2023-03-10T18:38:46.712Z,3.00
2023-03-10T18:41:19.351Z,2.38
2023-03-10T18:43:49.755Z,3.30
2023-03-10T18:46:30.091Z,2.72
2023-03-10T18:49:09.344Z,2.35
2023-03-10T18:52:02.511Z,2.45
2023-03-10T18:54:30.621Z,2.75
2023-03-10T18:57:04.937Z,3.13
2023-03-10T18:59:41.155Z,3.50
2023-03-10T19:02:20.784Z,2.50
2023-03-10T19:05:15.792Z,3.63
2023-03-10T19:07:44.961Z,4.32
2023-03-10T19:10:14.943Z,3.13
2023-03-10T19:12:45.811Z,2.55
2023-03-10T19:15:17.865Z,2.83
2023-03-10T19:17:47.165Z,3.10
2023-03-10T19:20:23.116Z,3.80
2023-03-10T19:22:58.691Z,4.43
2023-03-10T19:28:38.721Z,3.75
2023-03-10T19:31:18.414Z,3.15
2023-03-10T19:33:45.936Z,3.10
2023-03-10T19:36:19.213Z,3.05
2023-03-10T19:38:56.011Z,2.42
2023-03-10T19:41:23.753Z,3.17
2023-03-10T19:43:51.698Z,3.13
2023-03-10T19:46:31.353Z,2.78
2023-03-10T19:49:03.996Z,2.67
2023-03-10T19:51:45.586Z,2.17
2023-03-10T19:57:04.942Z,3.00
2023-03-10T19:59:41.520Z,3.03
2023-03-10T20:02:32.053Z,2.85
2023-03-10T20:05:13.007Z,2.83
2023-03-10T20:07:47.103Z,3.05
2023-03-10T20:10:28.209Z,3.58
2023-03-10T20:15:53.059Z,3.60
2023-03-10T20:21:24.965Z,3.47
2023-03-10T20:23:56.456Z,3.28
2023-03-10T20:26:25.073Z,3.00
2023-03-10T20:29:01.745Z,3.33
2023-03-10T20:31:36.431Z,3.70
2023-03-10T20:34:34.572Z,3.70
2023-03-10T20:37:08.346Z,3.75
2023-03-10T20:40:06.597Z,3.88
2023-03-10T20:42:36.464Z,3.10
2023-03-10T20:45:20.362Z,4.10
2023-03-10T20:47:53.404Z,3.72
2023-03-10T20:50:33.532Z,3.58
2023-03-10T20:53:08.477Z,4.72
2023-03-10T20:55:53.237Z,2.83
2023-03-10T20:58:36.994Z,2.40
2023-03-10T21:01:10.508Z,1.60
2023-03-10T21:06:29.607Z,1.80
2023-03-10T21:09:02.386Z,1.95
2023-03-10T21:11:29.790Z,1.52
2023-03-10T21:14:07.290Z,1.27
2023-03-10T21:16:54.312Z,1.50
2023-03-10T21:19:30.158Z,2.22
2023-03-10T21:24:28.426Z,1.85
2023-03-10T21:27:01.511Z,1.10
2023-03-10T21:29:36.287Z,2.67
2023-03-10T21:32:06.226Z,1.30
2023-03-10T21:34:37.009Z,1.27
2023-03-10T21:37:08.950Z,1.48
2023-03-10T21:39:45.624Z,2.00
2023-03-10T21:42:33.103Z,1.42
2023-03-10T21:45:07.591Z,1.48
2023-03-10T21:47:38.160Z,1.75
2023-03-10T21:50:10.533Z,1.30
2023-03-10T21:52:51.069Z,1.67
2023-03-10T21:55:28.736Z,1.50
2023-03-10T21:58:00.382Z,1.40
2023-03-10T22:00:56.133Z,1.58
2023-03-10T22:03:27.375Z,1.40
2023-03-10T22:06:00.250Z,1.55
2023-03-10T22:08:38.589Z,1.65
2023-03-10T22:11:12.402Z,1.85
2023-03-10T22:13:46.102Z,2.00
2023-03-10T22:16:28.972Z,2.03
2023-03-10T22:18:59.029Z,1.50
2023-03-10T22:21:29.363Z,2.97
2023-03-10T22:24:09.153Z,2.03
2023-03-10T22:26:44.340Z,1.80
2023-03-10T22:29:13.951Z,2.00
2023-03-10T22:31:46.291Z,2.20
2023-03-10T22:34:35.979Z,1.42
2023-03-10T22:37:10.500Z,1.70
2023-03-10T22:39:38.903Z,1.38
2023-03-10T22:42:11.728Z,1.58
2023-03-10T22:44:44.712Z,1.33
2023-03-10T22:47:14.336Z,1.23
2023-03-10T22:49:49.406Z,1.50
2023-03-10T22:52:22.370Z,1.30
2023-03-10T22:54:54.193Z,1.48
2023-03-10T22:57:24.199Z,1.70
2023-03-10T22:59:54.909Z,1.83
2023-03-10T23:02:27.534Z,1.63
2023-03-10T23:04:57.540Z,1.50
2023-03-10T23:07:24.847Z,1.75
2023-03-10T23:10:01.930Z,1.45
2023-03-10T23:12:29.744Z,1.90
2023-03-10T23:14:57.229Z,1.58
2023-03-10T23:17:32.249Z,2.00
2023-03-10T23:20:03.375Z,1.90
2023-03-10T23:22:30.846Z,2.00
2023-03-10T23:25:00.202Z,1.95
2023-03-10T23:27:27.479Z,1.45
2023-03-10T23:29:59.571Z,1.92
2023-03-10T23:32:30.685Z,1.58
2023-03-10T23:34:59.246Z,1.85
2023-03-10T23:37:26.383Z,2.03
2023-03-10T23:39:59.116Z,2.00
2023-03-10T23:42:29.302Z,1.90
2023-03-10T23:44:56.505Z,1.33
2023-03-10T23:47:23.757Z,2.08
2023-03-10T23:49:55.462Z,2.25
2023-03-10T23:52:25.224Z,1.20
2023-03-10T23:54:52.926Z,1.52
2023-03-10T23:57:22.980Z,1.95
2023-03-10T23:59:51.586Z,1.73
